createdAt,value
2019-04-01T00:01:09.684Z,100864.64
2019-04-01T00:03:39.181Z,100861.29
2019-04-01T00:06:08.823Z,100857.89
2019-04-01T00:08:38.512Z,100865.61
2019-04-01T00:11:08.105Z,100852.89
2019-04-01T00:13:37.574Z,100862.97
2019-04-01T00:16:07.109Z,100857.61
2019-04-01T00:18:36.717Z,100858.61
2019-04-01T00:21:06.339Z,100859.05
2019-04-01T00:23:35.856Z,100857.27
2019-04-01T00:26:05.531Z,100859.70
2019-04-01T00:28:35.189Z,100854.21
2019-04-01T00:31:05.384Z,100857.77
2019-04-01T00:33:34.674Z,100860.33
2019-04-01T00:36:03.968Z,100852.72
2019-04-01T00:38:33.539Z,100861.61
2019-04-01T00:41:03.777Z,100857.01
2019-04-01T00:43:37.890Z,100861.50
2019-04-01T00:46:07.363Z,100864.04
2019-04-01T00:48:37.001Z,100847.67
2019-04-01T00:51:06.629Z,100850.85
2019-04-01T00:53:36.215Z,100849.62
2019-04-01T00:56:05.919Z,100855.32
2019-04-01T00:58:35.238Z,100857.67
2019-04-01T01:01:04.938Z,100852.38
2019-04-01T01:03:34.229Z,100850.98
2019-04-01T01:06:03.422Z,100849.12
2019-04-01T01:08:32.943Z,100844.38
2019-04-01T01:11:04.166Z,100844.16
2019-04-01T01:13:33.674Z,100847.30
2019-04-01T01:16:03.317Z,100843.73
2019-04-01T01:18:32.756Z,100846.40
2019-04-01T01:21:02.234Z,100845.96
2019-04-01T01:23:31.771Z,100842.02
2019-04-01T01:26:01.277Z,100840.31
2019-04-01T01:28:30.798Z,100845.74
2019-04-01T01:31:00.297Z,100836.57
2019-04-01T01:33:29.624Z,100840.57
2019-04-01T01:35:59.142Z,100837.75
2019-04-01T01:38:28.685Z,100839.12
2019-04-01T01:40:58.204Z,100836.66
2019-04-01T01:43:27.666Z,100838.34
2019-04-01T01:45:57.247Z,100841.56
2019-04-01T01:48:26.727Z,100837.56
2019-04-01T01:50:56.513Z,100837.00
2019-04-01T01:53:26.132Z,100835.73
2019-04-01T01:55:55.655Z,100836.63
2019-04-01T01:58:25.233Z,100829.02
2019-04-01T02:00:56.379Z,100837.74
2019-04-01T02:03:26.023Z,100834.79
2019-04-01T02:05:55.541Z,100827.95
2019-04-01T02:08:25.086Z,100827.16
2019-04-01T02:10:54.619Z,100825.39
2019-04-01T02:13:24.105Z,100824.30
2019-04-01T02:15:53.567Z,100822.02
2019-04-01T02:18:23.117Z,100815.92
2019-04-01T02:20:52.653Z,100808.33
2019-04-01T02:23:22.218Z,100804.52
2019-04-01T02:25:51.407Z,100801.52
2019-04-01T02:28:20.764Z,100797.33
2019-04-01T02:30:50.127Z,100807.78
2019-04-01T02:33:19.395Z,100811.02
2019-04-01T02:35:48.973Z,100811.74
2019-04-01T02:38:18.592Z,100811.64
2019-04-01T02:40:48.215Z,100803.45
2019-04-01T02:43:17.700Z,100817.39
2019-04-01T02:45:47.293Z,100813.05
2019-04-01T02:48:16.807Z,100811.72
2019-04-01T02:50:46.425Z,100816.48
2019-04-01T02:53:15.963Z,100815.34
2019-04-01T02:55:45.480Z,100822.18
2019-04-01T02:58:15.074Z,100817.39
2019-04-01T03:00:44.764Z,100825.09
2019-04-01T03:03:14.342Z,100822.52
2019-04-01T03:05:43.927Z,100819.09
2019-04-01T03:08:13.493Z,100820.61
2019-04-01T03:10:42.985Z,100818.20
2019-04-01T03:13:12.739Z,100821.41
2019-04-01T03:15:42.200Z,100817.39
2019-04-01T03:18:11.945Z,100821.62
2019-04-01T03:20:41.483Z,100817.02
2019-04-01T03:23:10.748Z,100815.95
2019-04-01T03:25:40.379Z,100813.88
2019-04-01T03:28:09.660Z,100815.38
2019-04-01T03:30:39.854Z,100816.58
2019-04-01T03:33:09.070Z,100811.13
2019-04-01T03:35:38.723Z,100821.64
2019-04-01T03:38:08.182Z,100813.25
2019-04-01T03:40:37.661Z,100815.56
2019-04-01T03:43:06.989Z,100822.09
2019-04-01T03:45:39.011Z,100819.36
2019-04-01T03:48:08.471Z,100820.69
2019-04-01T03:50:38.024Z,100827.54
2019-04-01T03:53:07.540Z,100819.92
2019-04-01T03:55:37.180Z,100821.69
2019-04-01T03:58:06.709Z,100826.45
2019-04-01T04:00:36.445Z,100826.58
2019-04-01T04:03:06.070Z,100817.63
2019-04-01T04:05:35.705Z,100818.31
2019-04-01T04:08:05.234Z,100826.86
2019-04-01T04:10:35.205Z,100818.66
2019-04-01T04:13:04.861Z,100819.94
2019-04-01T04:15:34.942Z,100830.37
2019-04-01T04:18:04.445Z,100820.73
2019-04-01T04:20:33.933Z,100822.61
2019-04-01T04:23:03.389Z,100826.19
2019-04-01T04:25:32.853Z,100827.72
2019-04-01T04:28:02.319Z,100823.05
2019-04-01T04:30:31.874Z,100827.72
2019-04-01T04:33:01.427Z,100825.56
2019-04-01T04:35:31.042Z,100823.30
2019-04-01T04:38:00.548Z,100824.03
2019-04-01T04:40:29.929Z,100823.80
2019-04-01T04:42:59.437Z,100817.16
2019-04-01T04:45:29.110Z,100828.16
2019-04-01T04:47:58.846Z,100830.24
2019-04-01T04:50:28.837Z,100827.19
2019-04-01T04:52:58.684Z,100828.51
2019-04-01T04:55:27.932Z,100830.19
2019-04-01T04:57:57.828Z,100827.67
2019-04-01T05:00:28.369Z,100832.70
2019-04-01T05:03:00.619Z,100823.95
2019-04-01T05:05:30.171Z,100829.55
2019-04-01T05:07:59.769Z,100826.89
2019-04-01T05:10:29.017Z,100822.50
2019-04-01T05:12:58.755Z,100830.59
2019-04-01T05:15:28.314Z,100834.57
2019-04-01T05:17:57.912Z,100837.17
2019-04-01T05:20:27.926Z,100829.61
2019-04-01T05:22:57.739Z,100831.77
2019-04-01T05:25:28.134Z,100837.03
2019-04-01T05:28:00.940Z,100842.20
2019-04-01T05:30:33.744Z,100838.55
2019-04-01T05:33:05.146Z,100838.48
2019-04-01T05:35:36.060Z,100836.20
2019-04-01T05:38:06.881Z,100839.34
2019-04-01T05:40:36.494Z,100845.34
2019-04-01T05:43:06.104Z,100845.34
2019-04-01T05:45:35.709Z,100836.28
2019-04-01T05:48:05.397Z,100845.69
2019-04-01T05:50:35.033Z,100848.61
2019-04-01T05:53:05.040Z,100840.43
2019-04-01T05:55:35.571Z,100845.75
2019-04-01T05:58:05.395Z,100850.37
2019-04-01T06:00:36.623Z,100847.56
2019-04-01T06:03:06.337Z,100845.74
2019-04-01T06:05:36.089Z,100851.70
2019-04-01T06:08:05.649Z,100848.66
2019-04-01T06:10:35.434Z,100857.78
2019-04-01T06:13:04.995Z,100857.78
2019-04-01T06:15:34.704Z,100855.33
2019-04-01T06:18:04.311Z,100859.71
2019-04-01T06:20:33.910Z,100846.85
2019-04-01T06:23:03.643Z,100850.59
2019-04-01T06:25:33.151Z,100847.57
2019-04-01T06:28:02.607Z,100848.72
2019-04-01T06:30:31.883Z,100849.03
2019-04-01T06:33:01.125Z,100847.45
2019-04-01T06:35:30.672Z,100851.27
2019-04-01T06:38:00.317Z,100854.34
2019-04-01T06:40:29.702Z,100847.69
2019-04-01T06:42:59.228Z,100852.61
2019-04-01T06:45:28.768Z,100843.78
2019-04-01T06:47:58.367Z,100846.28
2019-04-01T06:50:27.990Z,100848.88
2019-04-01T06:52:57.478Z,100853.09
2019-04-01T06:55:27.096Z,100844.73
2019-04-01T06:57:56.789Z,100835.59
2019-04-01T07:00:26.358Z,100847.44
2019-04-01T07:02:55.979Z,100840.25
2019-04-01T07:05:25.597Z,100835.02
2019-04-01T07:07:54.849Z,100839.36
2019-04-01T07:10:25.092Z,100836.67
2019-04-01T07:12:53.963Z,100837.80
2019-04-01T07:15:23.817Z,100835.79
2019-04-01T07:17:52.992Z,100836.53
2019-04-01T07:20:22.692Z,100837.55
2019-04-01T07:22:52.073Z,100826.38
2019-04-01T07:25:21.717Z,100831.15
2019-04-01T07:27:51.109Z,100827.69
2019-04-01T07:30:20.924Z,100826.73
2019-04-01T07:32:50.375Z,100821.96
2019-04-01T07:35:20.118Z,100823.55
2019-04-01T07:37:49.738Z,100817.53
2019-04-01T07:40:19.289Z,100811.70
2019-04-01T07:42:48.897Z,100811.10
2019-04-01T07:45:18.528Z,100809.89
2019-04-01T07:47:51.504Z,100817.57
2019-04-01T07:50:19.421Z,100816.94
2019-04-01T07:52:48.974Z,100808.80
2019-04-01T07:55:18.432Z,100809.24
2019-04-01T07:57:48.084Z,100813.05
2019-04-01T08:00:17.760Z,100812.43
2019-04-01T08:02:49.131Z,100817.59
2019-04-01T08:05:18.739Z,100816.44
2019-04-01T08:07:48.382Z,100807.06
2019-04-01T08:10:18.095Z,100807.29
2019-04-01T08:12:47.648Z,100800.42
2019-04-01T08:15:17.243Z,100800.42
2019-04-01T08:17:46.882Z,100798.64
2019-04-01T08:20:16.802Z,100801.33
2019-04-01T08:22:46.391Z,100801.06
2019-04-01T08:25:15.335Z,100810.53
2019-04-01T08:27:44.823Z,100801.13
2019-04-01T08:30:14.677Z,100803.55
2019-04-01T08:32:43.930Z,100808.21
2019-04-01T08:35:13.461Z,100802.91
2019-04-01T08:37:42.485Z,100801.88
2019-04-01T08:40:12.474Z,100811.15
2019-04-01T08:42:42.166Z,100809.48
2019-04-01T08:45:12.401Z,100809.92
2019-04-01T08:47:44.470Z,100809.92
2019-04-01T08:50:14.468Z,100795.16
2019-04-01T08:52:44.172Z,100798.71
2019-04-01T08:55:13.912Z,100788.27
2019-04-01T08:57:43.526Z,100793.37
2019-04-01T09:00:13.677Z,100795.38
2019-04-01T09:02:43.118Z,100793.28
2019-04-01T09:05:13.596Z,100783.05
2019-04-01T09:07:43.126Z,100782.17
2019-04-01T09:10:13.088Z,100787.10
2019-04-01T09:12:42.334Z,100791.07
2019-04-01T09:15:12.435Z,100795.14
2019-04-01T09:17:42.151Z,100770.61
2019-04-01T09:20:11.844Z,100781.06
2019-04-01T09:22:41.375Z,100780.66
2019-04-01T09:25:11.389Z,100778.80
2019-04-01T09:27:42.433Z,100769.24
2019-04-01T09:30:12.423Z,100765.44
2019-04-01T09:32:42.033Z,100762.59
2019-04-01T09:35:11.876Z,100766.43
2019-04-01T09:37:40.777Z,100761.05
2019-04-01T09:40:10.888Z,100750.70
2019-04-01T09:42:40.409Z,100762.39
2019-04-01T09:45:10.769Z,100758.00
2019-04-01T09:47:40.366Z,100753.53
2019-04-01T09:50:10.712Z,100746.42
2019-04-01T09:52:40.309Z,100743.39
2019-04-01T09:55:10.128Z,100734.92
2019-04-01T09:57:39.655Z,100735.81
2019-04-01T10:00:11.536Z,100734.29
2019-04-01T10:02:41.195Z,100728.00
2019-04-01T10:05:11.568Z,100732.31
2019-04-01T10:07:41.203Z,100721.66
2019-04-01T10:10:11.265Z,100719.69
2019-04-01T10:12:40.840Z,100721.52
2019-04-01T10:15:12.039Z,100709.34
2019-04-01T10:17:41.507Z,100710.63
2019-04-01T10:20:11.369Z,100710.28
2019-04-01T10:22:41.172Z,100705.44
2019-04-01T10:25:10.974Z,100703.78
2019-04-01T10:27:40.527Z,100702.91
2019-04-01T10:30:11.827Z,100694.19
2019-04-01T10:32:41.319Z,100699.87
2019-04-01T10:35:11.170Z,100684.16
2019-04-01T10:37:40.469Z,100689.73
2019-04-01T10:40:11.431Z,100689.19
2019-04-01T10:42:42.762Z,100682.92
2019-04-01T10:45:12.323Z,100673.49
2019-04-01T10:47:41.932Z,100668.20
2019-04-01T10:50:11.908Z,100671.86
2019-04-01T10:52:44.021Z,100669.66
2019-04-01T10:55:13.017Z,100666.16
2019-04-01T10:57:43.625Z,100660.33
2019-04-01T11:00:13.340Z,100653.03
2019-04-01T11:02:42.918Z,100658.48
2019-04-01T11:05:12.625Z,100646.36
2019-04-01T11:07:42.266Z,100645.32
2019-04-01T11:10:12.248Z,100644.09
2019-04-01T11:12:41.835Z,100631.44
2019-04-01T11:15:15.313Z,100623.76
2019-04-01T11:17:43.925Z,100631.69
2019-04-01T11:20:13.819Z,100628.90
2019-04-01T11:22:43.151Z,100628.67
2019-04-01T11:25:13.114Z,100624.49
2019-04-01T11:27:42.741Z,100625.03
2019-04-01T11:30:13.880Z,100617.88
2019-04-01T11:32:43.457Z,100610.45
2019-04-01T11:35:13.295Z,100614.22
2019-04-01T11:37:43.000Z,100604.50
2019-04-01T11:40:12.933Z,100598.09
2019-04-01T11:42:42.587Z,100605.15
2019-04-01T11:45:11.502Z,100600.45
2019-04-01T11:47:41.184Z,100589.67
2019-04-01T11:50:12.621Z,100590.78
2019-04-01T11:52:42.296Z,100574.36
2019-04-01T11:55:11.679Z,100577.13
2019-04-01T11:57:41.096Z,100575.70
2019-04-01T12:00:16.160Z,100567.17
2019-04-01T12:02:46.313Z,100568.77
2019-04-01T12:05:16.204Z,100557.09
2019-04-01T12:07:45.881Z,100556.50
2019-04-01T12:10:15.534Z,100555.24
2019-04-01T12:12:44.850Z,100552.95
2019-04-01T12:15:14.741Z,100545.45
2019-04-01T12:17:45.406Z,100543.79
2019-04-01T12:20:14.783Z,100533.55
2019-04-01T12:22:45.905Z,100531.56
2019-04-01T12:25:15.848Z,100513.08
2019-04-01T12:27:45.636Z,100524.78
2019-04-01T12:30:15.869Z,100522.34
2019-04-01T12:32:45.430Z,100513.34
2019-04-01T12:35:15.116Z,100507.32
2019-04-01T12:37:45.847Z,100507.34
2019-04-01T12:40:15.599Z,100499.96
2019-04-01T12:42:46.421Z,100499.96
2019-04-01T12:45:16.169Z,100499.73
2019-04-01T12:47:45.697Z,100494.97
2019-04-01T12:50:16.918Z,100486.56
2019-04-01T12:52:47.783Z,100477.66
2019-04-01T12:55:17.106Z,100482.38
2019-04-01T12:57:48.541Z,100480.90
2019-04-01T13:00:18.180Z,100476.74
2019-04-01T13:02:48.761Z,100464.45
2019-04-01T13:05:18.779Z,100455.05
2019-04-01T13:07:49.857Z,100462.74
2019-04-01T13:10:20.168Z,100458.43
2019-04-01T13:12:49.456Z,100456.31
2019-04-01T13:15:19.125Z,100452.55
2019-04-01T13:17:49.928Z,100449.88
2019-04-01T13:20:19.584Z,100442.18
2019-04-01T13:22:49.073Z,100431.94
2019-04-01T13:25:18.543Z,100440.13
2019-04-01T13:27:48.109Z,100430.95
2019-04-01T13:30:18.996Z,100431.94
2019-04-01T13:32:48.937Z,100424.47
2019-04-01T13:35:18.662Z,100417.23
2019-04-01T13:37:48.379Z,100409.33
2019-04-01T13:40:19.634Z,100407.66
2019-04-01T13:42:49.184Z,100408.12
2019-04-01T13:45:18.758Z,100402.35
2019-04-01T13:47:48.726Z,100397.00
2019-04-01T13:50:18.987Z,100393.36
2019-04-01T13:52:48.644Z,100386.78
2019-04-01T13:55:18.246Z,100379.19
2019-04-01T13:57:47.735Z,100383.66
2019-04-01T14:00:17.658Z,100374.55
2019-04-01T14:02:46.548Z,100364.11
2019-04-01T14:05:16.286Z,100370.94
2019-04-01T14:07:45.822Z,100363.30
2019-04-01T14:10:15.863Z,100358.73
2019-04-01T14:12:45.453Z,100353.27
2019-04-01T14:15:15.292Z,100350.55
2019-04-01T14:17:44.832Z,100347.59
2019-04-01T14:20:14.566Z,100354.26
2019-04-01T14:22:44.610Z,100347.66
2019-04-01T14:25:16.013Z,100341.22
2019-04-01T14:27:45.534Z,100337.31
2019-04-01T14:30:14.924Z,100329.36
2019-04-01T14:32:44.558Z,100330.72
2019-04-01T14:35:14.410Z,100329.08
2019-04-01T14:37:43.579Z,100330.99
2019-04-01T14:40:13.497Z,100320.89
2019-04-01T14:42:43.001Z,100323.07
2019-04-01T14:45:12.877Z,100315.59
2019-04-01T14:47:56.469Z,100311.60
2019-04-01T14:50:13.766Z,100312.50
2019-04-01T14:52:43.420Z,100308.59
2019-04-01T14:55:13.275Z,100309.37
2019-04-01T14:57:42.736Z,100308.79
2019-04-01T15:00:13.808Z,100307.34
2019-04-01T15:02:43.164Z,100304.57
2019-04-01T15:05:13.086Z,100296.77
2019-04-01T15:07:42.646Z,100298.53
2019-04-01T15:10:12.875Z,100292.55
2019-04-01T15:12:42.426Z,100290.20
2019-04-01T15:15:12.364Z,100284.39
2019-04-01T15:17:41.716Z,100295.81
2019-04-01T15:20:13.715Z,100284.20
2019-04-01T15:22:43.268Z,100283.87
2019-04-01T15:25:14.540Z,100283.52
2019-04-01T15:27:44.007Z,100280.95
2019-04-01T15:30:14.258Z,100269.47
2019-04-01T15:32:44.099Z,100272.17
2019-04-01T15:35:13.871Z,100263.75
2019-04-01T15:37:43.370Z,100263.34
2019-04-01T15:40:15.294Z,100260.39
2019-04-01T15:42:44.833Z,100250.84
2019-04-01T15:45:14.555Z,100252.40
2019-04-01T15:47:44.121Z,100259.27
2019-04-01T15:50:27.732Z,100256.69
2019-04-01T15:52:44.722Z,100248.84
2019-04-01T15:55:14.482Z,100246.27
2019-04-01T15:57:43.673Z,100246.69
2019-04-01T16:00:13.564Z,100233.79
2019-04-01T16:02:43.536Z,100233.94
2019-04-01T16:05:12.925Z,100232.78
2019-04-01T16:07:42.443Z,100222.95
2019-04-01T16:10:12.207Z,100230.31
2019-04-01T16:12:41.862Z,100226.91
2019-04-01T16:15:11.498Z,100227.55
2019-04-01T16:17:40.867Z,100226.08
2019-04-01T16:20:10.771Z,100219.45
2019-04-01T16:22:43.658Z,100216.52
2019-04-01T16:25:13.528Z,100215.39
2019-04-01T16:27:43.365Z,100210.03
2019-04-01T16:30:13.058Z,100212.63
2019-04-01T16:32:42.647Z,100216.16
2019-04-01T16:35:11.900Z,100210.02
2019-04-01T16:37:41.542Z,100211.04
2019-04-01T16:40:11.451Z,100208.27
2019-04-01T16:42:40.941Z,100211.22
2019-04-01T16:45:13.311Z,100207.80
2019-04-01T16:47:42.861Z,100205.75
2019-04-01T16:50:12.770Z,100205.63
2019-04-01T16:52:42.126Z,100203.16
2019-04-01T16:55:11.939Z,100207.91
2019-04-01T16:57:41.637Z,100208.06
2019-04-01T17:00:14.497Z,100200.88
2019-04-01T17:02:43.636Z,100199.28
2019-04-01T17:05:14.285Z,100197.72
2019-04-01T17:07:44.018Z,100193.94
2019-04-01T17:10:19.408Z,100193.36
2019-04-01T17:12:49.034Z,100197.14
2019-04-01T17:15:18.642Z,100193.09
2019-04-01T17:17:47.845Z,100192.73
2019-04-01T17:20:17.757Z,100193.56
2019-04-01T17:22:47.360Z,100191.16
2019-04-01T17:25:16.966Z,100186.28
2019-04-01T17:27:46.581Z,100193.44
2019-04-01T17:30:16.391Z,100194.27
2019-04-01T17:32:45.666Z,100192.38
2019-04-01T17:35:15.019Z,100191.70
2019-04-01T17:37:44.639Z,100187.97
2019-04-01T17:40:16.898Z,100185.33
2019-04-01T17:42:46.532Z,100188.69
2019-04-01T17:45:21.860Z,100188.45
2019-04-01T17:47:51.472Z,100194.45
2019-04-01T17:50:21.068Z,100189.10
2019-04-01T17:52:52.815Z,100186.25
2019-04-01T17:55:22.490Z,100191.80
2019-04-01T17:57:52.143Z,100195.88
2019-04-01T18:00:23.541Z,100191.10
2019-04-01T18:02:53.037Z,100188.67
2019-04-01T18:05:22.936Z,100195.27
2019-04-01T18:07:52.554Z,100193.30
2019-04-01T18:10:22.187Z,100192.09
2019-04-01T18:12:51.955Z,100191.58
2019-04-01T18:15:21.842Z,100186.94
2019-04-01T18:17:51.367Z,100190.98
2019-04-01T18:20:20.852Z,100187.95
2019-04-01T18:22:50.396Z,100190.48
2019-04-01T18:25:20.979Z,100192.30
2019-04-01T18:27:50.800Z,100193.84
2019-04-01T18:30:20.928Z,100194.84
2019-04-01T18:32:54.788Z,100197.98
2019-04-01T18:35:21.899Z,100199.39
2019-04-01T18:37:51.388Z,100205.91
2019-04-01T18:40:32.039Z,100203.02
2019-04-01T18:42:52.303Z,100211.34
2019-04-01T18:45:22.410Z,100216.57
2019-04-01T18:47:51.936Z,100219.69
2019-04-01T18:50:21.611Z,100218.27
2019-04-01T18:52:51.092Z,100218.92
2019-04-01T18:55:20.700Z,100224.40
2019-04-01T18:57:50.508Z,100224.75
2019-04-01T19:00:21.773Z,100225.91
2019-04-01T19:02:55.507Z,100225.91
2019-04-01T19:05:24.268Z,100228.30
2019-04-01T19:07:53.873Z,100229.42
2019-04-01T19:10:24.002Z,100231.59
2019-04-01T19:13:05.067Z,100231.28
2019-04-01T19:15:28.161Z,100230.48
2019-04-01T19:17:58.131Z,100236.17
2019-04-01T19:20:30.415Z,100229.52
2019-04-01T19:22:58.891Z,100235.42
2019-04-01T19:25:28.349Z,100240.70
2019-04-01T19:27:57.948Z,100241.34
2019-04-01T19:30:27.691Z,100248.16
2019-04-01T19:32:57.417Z,100242.67
2019-04-01T19:35:26.770Z,100242.13
2019-04-01T19:37:56.679Z,100241.08
2019-04-01T19:40:26.500Z,100239.05
2019-04-01T19:42:56.005Z,100243.09
2019-04-01T19:45:25.401Z,100239.26
2019-04-01T19:47:57.218Z,100239.60
2019-04-01T19:50:26.323Z,100240.91
2019-04-01T19:52:55.848Z,100246.59
2019-04-01T19:55:25.252Z,100249.12
2019-04-01T19:57:56.100Z,100247.51
2019-04-01T20:00:28.385Z,100248.91
2019-04-01T20:02:58.039Z,100242.97
2019-04-01T20:05:27.774Z,100238.41
2019-04-01T20:07:57.231Z,100234.08
2019-04-01T20:10:28.362Z,100242.45
2019-04-01T20:12:58.021Z,100243.17
2019-04-01T20:15:27.655Z,100236.76
2019-04-01T20:17:57.202Z,100244.82
2019-04-01T20:20:26.859Z,100239.51
2019-04-01T20:22:56.411Z,100235.34
2019-04-01T20:25:26.025Z,100236.93
2019-04-01T20:27:55.692Z,100236.45
2019-04-01T20:30:25.406Z,100232.68
2019-04-01T20:32:55.069Z,100224.14
2019-04-01T20:35:24.598Z,100226.83
2019-04-01T20:37:54.066Z,100224.92
2019-04-01T20:40:24.314Z,100228.58
2019-04-01T20:42:54.368Z,100226.58
2019-04-01T20:45:23.994Z,100226.58
2019-04-01T20:47:53.624Z,100221.55
2019-04-01T20:50:22.925Z,100228.20
2019-04-01T20:52:52.506Z,100227.09
2019-04-01T20:55:22.059Z,100229.78
2019-04-01T20:57:51.634Z,100227.97
2019-04-01T21:00:21.293Z,100220.30
2019-04-01T21:02:50.810Z,100218.67
2019-04-01T21:05:20.280Z,100222.23
2019-04-01T21:07:49.924Z,100221.60
2019-04-01T21:10:19.680Z,100216.03
2019-04-01T21:12:49.168Z,100211.98
2019-04-01T21:15:22.267Z,100210.37
2019-04-01T21:17:53.322Z,100207.84
2019-04-01T21:20:22.331Z,100207.84
2019-04-01T21:22:51.819Z,100207.59
2019-04-01T21:25:21.356Z,100206.33
2019-04-01T21:27:50.996Z,100209.31
2019-04-01T21:30:20.615Z,100206.25
2019-04-01T21:32:50.300Z,100205.48
2019-04-01T21:35:19.804Z,100206.52
2019-04-01T21:37:49.294Z,100201.20
2019-04-01T21:40:18.914Z,100198.52
2019-04-01T21:42:48.412Z,100199.48
2019-04-01T21:45:17.824Z,100192.59
2019-04-01T21:47:47.353Z,100194.45
2019-04-01T21:50:17.087Z,100195.59
2019-04-01T21:52:46.687Z,100188.89
2019-04-01T21:55:16.504Z,100183.86
2019-04-01T21:57:45.863Z,100182.75
2019-04-01T22:00:18.114Z,100178.05
2019-04-01T22:02:47.947Z,100177.04
2019-04-01T22:05:17.571Z,100176.89
2019-04-01T22:07:47.272Z,100183.73
2019-04-01T22:10:16.141Z,100175.30
2019-04-01T22:12:45.908Z,100173.14
2019-04-01T22:15:15.618Z,100173.84
2019-04-01T22:17:46.092Z,100176.53
2019-04-01T22:20:15.703Z,100172.20
2019-04-01T22:22:46.083Z,100171.02
2019-04-01T22:25:15.692Z,100169.23
2019-04-01T22:27:45.299Z,100162.46
2019-04-01T22:30:17.090Z,100160.49
2019-04-01T22:32:46.539Z,100157.25
2019-04-01T22:35:16.107Z,100155.80
2019-04-01T22:37:46.325Z,100151.07
2019-04-01T22:40:18.016Z,100149.41
2019-04-01T22:42:47.527Z,100154.05
2019-04-01T22:45:16.710Z,100147.11
2019-04-01T22:47:45.848Z,100149.79
2019-04-01T22:50:15.432Z,100151.12
2019-04-01T22:52:44.981Z,100146.02
2019-04-01T22:55:14.636Z,100147.73
2019-04-01T22:57:44.092Z,100141.36
2019-04-01T23:00:14.049Z,100149.66
2019-04-01T23:02:43.420Z,100150.31
2019-04-01T23:05:13.028Z,100147.09
2019-04-01T23:07:42.628Z,100146.90
2019-04-01T23:10:12.466Z,100142.63
2019-04-01T23:12:41.968Z,100136.55
2019-04-01T23:15:11.864Z,100130.56
2019-04-01T23:17:41.334Z,100131.52
2019-04-01T23:20:11.207Z,100126.97
2019-04-01T23:22:42.342Z,100125.41
2019-04-01T23:25:12.124Z,100121.67
2019-04-01T23:27:41.613Z,100118.30
2019-04-01T23:30:12.265Z,100119.45
2019-04-01T23:32:42.131Z,100113.45
2019-04-01T23:35:12.528Z,100112.38
2019-04-01T23:37:42.394Z,100117.16
2019-04-01T23:40:12.514Z,100113.11
2019-04-01T23:42:41.892Z,100113.80
2019-04-01T23:45:12.074Z,100101.89
2019-04-01T23:47:41.256Z,100111.35
2019-04-01T23:50:11.070Z,100106.54
2019-04-01T23:52:40.551Z,100107.11
2019-04-01T23:55:11.307Z,100104.40
2019-04-01T23:57:40.790Z,100098.25
